sensor_id;sensor_type;location;lat;lon;timestamp;pressure;altitude;pressure_sealevel;temperature;humidity
74181;BME280;62544;50.826;14.354;2022-08-27T00:02:51;98718.69;;;18.00;93.38
74181;BME280;62544;50.826;14.354;2022-08-27T00:06:53;98717.13;;;18.02;93.51
74181;BME280;62544;50.826;14.354;2022-08-27T00:10:55;98714.69;;;18.04;93.47
74181;BME280;62544;50.826;14.354;2022-08-27T00:14:57;98712.08;;;18.03;93.46
74181;BME280;62544;50.826;14.354;2022-08-27T00:18:59;98708.37;;;18.00;93.61
74181;BME280;62544;50.826;14.354;2022-08-27T00:23:01;98704.39;;;17.95;93.34
74181;BME280;62544;50.826;14.354;2022-08-27T00:27:03;98702.44;;;17.89;93.60
74181;BME280;62544;50.826;14.354;2022-08-27T00:31:05;98701.78;;;17.80;93.35
74181;BME280;62544;50.826;14.354;2022-08-27T00:35:08;98700.86;;;17.71;93.45
74181;BME280;62544;50.826;14.354;2022-08-27T00:39:10;98698.63;;;17.62;93.24
74181;BME280;62544;50.826;14.354;2022-08-27T00:43:11;98697.53;;;17.53;92.99
74181;BME280;62544;50.826;14.354;2022-08-27T00:47:14;98697.45;;;17.42;92.96
74181;BME280;62544;50.826;14.354;2022-08-27T00:51:15;98697.00;;;17.31;93.02
74181;BME280;62544;50.826;14.354;2022-08-27T00:55:18;98697.38;;;17.23;93.72
74181;BME280;62544;50.826;14.354;2022-08-27T00:59:20;98699.31;;;17.19;94.28
74181;BME280;62544;50.826;14.354;2022-08-27T01:03:21;98699.77;;;17.17;94.12
74181;BME280;62544;50.826;14.354;2022-08-27T01:07:23;98700.74;;;17.16;94.13
74181;BME280;62544;50.826;14.354;2022-08-27T01:11:25;98700.51;;;17.16;94.50
74181;BME280;62544;50.826;14.354;2022-08-27T01:15:27;98700.33;;;17.17;94.40
74181;BME280;62544;50.826;14.354;2022-08-27T01:19:32;98699.92;;;17.19;94.05
74181;BME280;62544;50.826;14.354;2022-08-27T01:27:33;98701.81;;;17.21;94.43
74181;BME280;62544;50.826;14.354;2022-08-27T01:31:35;98702.48;;;17.22;94.43
74181;BME280;62544;50.826;14.354;2022-08-27T01:35:37;98704.30;;;17.25;94.44
74181;BME280;62544;50.826;14.354;2022-08-27T01:39:39;98705.84;;;17.30;94.29
74181;BME280;62544;50.826;14.354;2022-08-27T01:43:41;98705.80;;;17.36;94.14
74181;BME280;62544;50.826;14.354;2022-08-27T01:47:43;98706.36;;;17.42;94.03
74181;BME280;62544;50.826;14.354;2022-08-27T01:51:45;98706.69;;;17.47;93.95
74181;BME280;62544;50.826;14.354;2022-08-27T01:55:47;98707.19;;;17.52;94.02
74181;BME280;62544;50.826;14.354;2022-08-27T01:59:49;98708.18;;;17.56;93.99
74181;BME280;62544;50.826;14.354;2022-08-27T02:03:51;98707.05;;;17.59;94.17
74181;BME280;62544;50.826;14.354;2022-08-27T02:07:53;98704.67;;;17.62;94.25
74181;BME280;62544;50.826;14.354;2022-08-27T02:11:55;98701.28;;;17.66;94.21
74181;BME280;62544;50.826;14.354;2022-08-27T02:15:57;98698.75;;;17.70;94.17
74181;BME280;62544;50.826;14.354;2022-08-27T02:19:59;98696.33;;;17.74;94.01
74181;BME280;62544;50.826;14.354;2022-08-27T02:24:01;98694.42;;;17.78;93.93
74181;BME280;62544;50.826;14.354;2022-08-27T02:28:04;98692.94;;;17.80;93.84
74181;BME280;62544;50.826;14.354;2022-08-27T02:32:05;98691.28;;;17.81;93.93
74181;BME280;62544;50.826;14.354;2022-08-27T02:36:07;98689.67;;;17.82;94.22
74181;BME280;62544;50.826;14.354;2022-08-27T02:40:10;98686.99;;;17.80;94.47
74181;BME280;62544;50.826;14.354;2022-08-27T02:44:11;98683.93;;;17.77;94.58
74181;BME280;62544;50.826;14.354;2022-08-27T02:48:13;98681.25;;;17.76;94.51
74181;BME280;62544;50.826;14.354;2022-08-27T02:52:15;98678.74;;;17.76;94.31
74181;BME280;62544;50.826;14.354;2022-08-27T02:56:17;98675.42;;;17.78;94.25
74181;BME280;62544;50.826;14.354;2022-08-27T03:00:20;98671.70;;;17.80;94.00
74181;BME280;62544;50.826;14.354;2022-08-27T03:04:21;98667.88;;;17.82;93.97
74181;BME280;62544;50.826;14.354;2022-08-27T03:08:26;98667.49;;;17.84;93.92
74181;BME280;62544;50.826;14.354;2022-08-27T03:12:25;98668.95;;;17.85;93.88
74181;BME280;62544;50.826;14.354;2022-08-27T03:16:27;98669.28;;;17.87;93.99
74181;BME280;62544;50.826;14.354;2022-08-27T03:20:29;98671.12;;;17.87;93.97
74181;BME280;62544;50.826;14.354;2022-08-27T03:24:31;98674.69;;;17.86;94.12
74181;BME280;62544;50.826;14.354;2022-08-27T03:28:33;98679.44;;;17.86;94.15
74181;BME280;62544;50.826;14.354;2022-08-27T03:32:35;98685.30;;;17.84;94.22
74181;BME280;62544;50.826;14.354;2022-08-27T03:36:37;98689.75;;;17.83;94.30
74181;BME280;62544;50.826;14.354;2022-08-27T03:40:39;98694.31;;;17.84;94.14
74181;BME280;62544;50.826;14.354;2022-08-27T03:44:41;98697.85;;;17.84;94.02
74181;BME280;62544;50.826;14.354;2022-08-27T03:48:43;98702.29;;;17.82;94.14
74181;BME280;62544;50.826;14.354;2022-08-27T03:52:45;98706.91;;;17.81;94.06
74181;BME280;62544;50.826;14.354;2022-08-27T03:56:47;98710.77;;;17.80;94.11
74181;BME280;62544;50.826;14.354;2022-08-27T04:00:49;98715.39;;;17.77;94.26
74181;BME280;62544;50.826;14.354;2022-08-27T04:04:51;98718.64;;;17.74;94.37
74181;BME280;62544;50.826;14.354;2022-08-27T04:08:53;98719.65;;;17.73;94.29
74181;BME280;62544;50.826;14.354;2022-08-27T04:12:55;98719.30;;;17.72;94.28
74181;BME280;62544;50.826;14.354;2022-08-27T04:16:57;98720.08;;;17.72;94.08
74181;BME280;62544;50.826;14.354;2022-08-27T04:21:05;98719.74;;;17.72;93.83
74181;BME280;62544;50.826;14.354;2022-08-27T04:25:01;98719.47;;;17.72;93.86
74181;BME280;62544;50.826;14.354;2022-08-27T04:29:03;98718.70;;;17.72;93.39
74181;BME280;62544;50.826;14.354;2022-08-27T04:33:05;98717.83;;;17.71;93.50
74181;BME280;62544;50.826;14.354;2022-08-27T04:37:07;98717.05;;;17.72;93.46
74181;BME280;62544;50.826;14.354;2022-08-27T04:41:09;98716.64;;;17.73;93.19
74181;BME280;62544;50.826;14.354;2022-08-27T04:45:11;98715.59;;;17.74;93.26
74181;BME280;62544;50.826;14.354;2022-08-27T04:49:13;98714.71;;;17.74;93.22
74181;BME280;62544;50.826;14.354;2022-08-27T04:53:15;98714.09;;;17.76;93.22
74181;BME280;62544;50.826;14.354;2022-08-27T04:57:17;98713.05;;;17.79;93.13
74181;BME280;62544;50.826;14.354;2022-08-27T05:01:23;98711.35;;;17.84;92.92
74181;BME280;62544;50.826;14.354;2022-08-27T05:05:21;98708.70;;;17.90;92.94
74181;BME280;62544;50.826;14.354;2022-08-27T05:09:23;98706.92;;;17.97;92.73
74181;BME280;62544;50.826;14.354;2022-08-27T05:13:25;98705.35;;;18.07;92.28
74181;BME280;62544;50.826;14.354;2022-08-27T05:17:27;98703.53;;;18.18;91.62
74181;BME280;62544;50.826;14.354;2022-08-27T05:21:30;98701.95;;;18.29;90.97
74181;BME280;62544;50.826;14.354;2022-08-27T05:25:31;98699.59;;;18.39;91.14
74181;BME280;62544;50.826;14.354;2022-08-27T05:29:33;98697.81;;;18.47;90.59
74181;BME280;62544;50.826;14.354;2022-08-27T05:33:35;98696.27;;;18.51;90.62
74181;BME280;62544;50.826;14.354;2022-08-27T05:37:37;98695.31;;;18.53;90.66
74181;BME280;62544;50.826;14.354;2022-08-27T05:41:39;98695.61;;;18.54;90.61
74181;BME280;62544;50.826;14.354;2022-08-27T05:45:44;98694.73;;;18.53;90.96
74181;BME280;62544;50.826;14.354;2022-08-27T05:49:43;98694.55;;;18.52;90.90
74181;BME280;62544;50.826;14.354;2022-08-27T05:53:45;98693.89;;;18.50;91.12
74181;BME280;62544;50.826;14.354;2022-08-27T05:57:47;98692.91;;;18.48;91.16
74181;BME280;62544;50.826;14.354;2022-08-27T06:01:50;98691.02;;;18.49;91.15
74181;BME280;62544;50.826;14.354;2022-08-27T06:05:58;98690.17;;;18.52;91.04
74181;BME280;62544;50.826;14.354;2022-08-27T06:09:53;98689.51;;;18.58;90.66
74181;BME280;62544;50.826;14.354;2022-08-27T06:13:55;98689.76;;;18.65;90.50
74181;BME280;62544;50.826;14.354;2022-08-27T06:17:57;98692.77;;;18.77;89.27
74181;BME280;62544;50.826;14.354;2022-08-27T06:21:59;98694.65;;;18.93;88.68
74181;BME280;62544;50.826;14.354;2022-08-27T06:26:04;98697.66;;;19.11;87.82
74181;BME280;62544;50.826;14.354;2022-08-27T06:30:03;98699.29;;;19.32;86.45
74181;BME280;62544;50.826;14.354;2022-08-27T06:34:05;98701.36;;;19.55;86.19
74181;BME280;62544;50.826;14.354;2022-08-27T06:38:07;98702.78;;;19.80;84.56
74181;BME280;62544;50.826;14.354;2022-08-27T06:42:09;98704.03;;;20.06;83.41
74181;BME280;62544;50.826;14.354;2022-08-27T06:46:12;98706.33;;;20.30;82.46
74181;BME280;62544;50.826;14.354;2022-08-27T06:50:13;98706.39;;;20.52;81.64
74181;BME280;62544;50.826;14.354;2022-08-27T06:54:15;98706.81;;;20.69;80.42
74181;BME280;62544;50.826;14.354;2022-08-27T06:58:17;98707.65;;;20.83;81.38
74181;BME280;62544;50.826;14.354;2022-08-27T07:02:19;98708.54;;;20.99;80.65
74181;BME280;62544;50.826;14.354;2022-08-27T07:06:21;98709.16;;;21.18;80.09
74181;BME280;62544;50.826;14.354;2022-08-27T07:10:23;98709.13;;;21.32;79.06
74181;BME280;62544;50.826;14.354;2022-08-27T07:14:25;98710.00;;;21.38;80.57
74181;BME280;62544;50.826;14.354;2022-08-27T07:18:27;98712.10;;;21.47;79.51
74181;BME280;62544;50.826;14.354;2022-08-27T07:22:29;98713.12;;;21.63;78.61
74181;BME280;62544;50.826;14.354;2022-08-27T07:26:32;98715.19;;;21.82;77.41
74181;BME280;62544;50.826;14.354;2022-08-27T07:30:33;98715.90;;;21.98;76.91
74181;BME280;62544;50.826;14.354;2022-08-27T07:34:35;98716.75;;;22.13;77.08
74181;BME280;62544;50.826;14.354;2022-08-27T07:38:37;98716.97;;;22.31;76.67
74181;BME280;62544;50.826;14.354;2022-08-27T07:42:39;98715.61;;;22.55;74.84
74181;BME280;62544;50.826;14.354;2022-08-27T07:46:41;98714.94;;;22.86;72.81
74181;BME280;62544;50.826;14.354;2022-08-27T07:50:43;98715.70;;;23.17;70.49
74181;BME280;62544;50.826;14.354;2022-08-27T07:54:45;98716.14;;;23.42;70.39
74181;BME280;62544;50.826;14.354;2022-08-27T07:58:47;98717.82;;;23.61;69.45
74181;BME280;62544;50.826;14.354;2022-08-27T08:02:49;98719.73;;;23.77;69.00
74181;BME280;62544;50.826;14.354;2022-08-27T08:06:51;98722.69;;;23.94;68.32
74181;BME280;62544;50.826;14.354;2022-08-27T08:10:55;98725.23;;;24.14;68.64
74181;BME280;62544;50.826;14.354;2022-08-27T08:14:55;98727.38;;;24.35;66.26
74181;BME280;62544;50.826;14.354;2022-08-27T08:18:57;98728.39;;;24.53;65.79
74181;BME280;62544;50.826;14.354;2022-08-27T08:22:59;98727.38;;;24.73;65.76
74181;BME280;62544;50.826;14.354;2022-08-27T08:27:01;98727.49;;;24.96;64.34
74181;BME280;62544;50.826;14.354;2022-08-27T08:31:03;98727.26;;;25.22;63.10
74181;BME280;62544;50.826;14.354;2022-08-27T08:35:05;98727.63;;;25.45;62.96
74181;BME280;62544;50.826;14.354;2022-08-27T08:39:07;98727.98;;;25.62;62.30
74181;BME280;62544;50.826;14.354;2022-08-27T08:43:12;98729.42;;;25.71;63.26
74181;BME280;62544;50.826;14.354;2022-08-27T08:47:12;98731.16;;;25.73;64.21
74181;BME280;62544;50.826;14.354;2022-08-27T08:51:23;98732.46;;;25.72;65.14
74181;BME280;62544;50.826;14.354;2022-08-27T08:55:32;98733.92;;;25.69;65.42
74181;BME280;62544;50.826;14.354;2022-08-27T08:59:23;98736.36;;;25.58;64.72
74181;BME280;62544;50.826;14.354;2022-08-27T09:03:19;98740.66;;;25.47;67.54
74181;BME280;62544;50.826;14.354;2022-08-27T09:07:25;98744.50;;;25.30;67.47
74181;BME280;62544;50.826;14.354;2022-08-27T09:11:27;98748.47;;;25.05;68.68
74181;BME280;62544;50.826;14.354;2022-08-27T09:15:25;98751.42;;;24.70;70.40
74181;BME280;62544;50.826;14.354;2022-08-27T09:19:27;98754.83;;;24.24;75.30
74181;BME280;62544;50.826;14.354;2022-08-27T09:23:39;98757.58;;;23.86;75.60
74181;BME280;62544;50.826;14.354;2022-08-27T09:27:32;98759.31;;;23.56;74.60
74181;BME280;62544;50.826;14.354;2022-08-27T09:31:35;98761.03;;;23.34;73.64
74181;BME280;62544;50.826;14.354;2022-08-27T09:35:39;98761.28;;;23.23;74.42
74181;BME280;62544;50.826;14.354;2022-08-27T09:43:39;98758.39;;;23.22;70.33
74181;BME280;62544;50.826;14.354;2022-08-27T09:47:42;98758.70;;;23.32;69.97
74181;BME280;62544;50.826;14.354;2022-08-27T09:51:43;98758.63;;;23.36;69.58
74181;BME280;62544;50.826;14.354;2022-08-27T09:55:49;98758.47;;;23.43;69.02
74181;BME280;62544;50.826;14.354;2022-08-27T09:59:50;98756.94;;;23.38;71.02
74181;BME280;62544;50.826;14.354;2022-08-27T10:03:49;98757.14;;;23.46;69.62
74181;BME280;62544;50.826;14.354;2022-08-27T10:07:52;98757.56;;;23.58;67.58
74181;BME280;62544;50.826;14.354;2022-08-27T10:12:00;98758.08;;;23.66;66.96
74181;BME280;62544;50.826;14.354;2022-08-27T10:24:19;98759.42;;;24.10;65.67
74181;BME280;62544;50.826;14.354;2022-08-27T10:28:07;98759.25;;;24.27;64.94
74181;BME280;62544;50.826;14.354;2022-08-27T10:32:09;98756.98;;;24.56;62.50
74181;BME280;62544;50.826;14.354;2022-08-27T10:36:17;98755.91;;;24.89;60.81
74181;BME280;62544;50.826;14.354;2022-08-27T10:44:27;98757.70;;;25.21;64.12
74181;BME280;62544;50.826;14.354;2022-08-27T10:52:16;98760.50;;;25.25;63.49
74181;BME280;62544;50.826;14.354;2022-08-27T10:56:20;98763.59;;;25.14;66.08
74181;BME280;62544;50.826;14.354;2022-08-27T11:00:21;98767.19;;;25.03;66.00
74181;BME280;62544;50.826;14.354;2022-08-27T11:04:20;98769.02;;;24.99;64.98
74181;BME280;62544;50.826;14.354;2022-08-27T11:08:34;98771.00;;;24.99;65.29
74181;BME280;62544;50.826;14.354;2022-08-27T11:12:32;98773.56;;;24.93;66.76
74181;BME280;62544;50.826;14.354;2022-08-27T11:16:26;98775.45;;;24.83;66.11
74181;BME280;62544;50.826;14.354;2022-08-27T11:20:28;98776.87;;;24.86;65.49
74181;BME280;62544;50.826;14.354;2022-08-27T11:24:38;98777.17;;;25.00;63.27
74181;BME280;62544;50.826;14.354;2022-08-27T11:36:50;98774.98;;;25.48;60.95
74181;BME280;62544;50.826;14.354;2022-08-27T11:44:43;98773.00;;;25.68;61.83
74181;BME280;62544;50.826;14.354;2022-08-27T11:48:42;98771.62;;;25.80;60.60
74181;BME280;62544;50.826;14.354;2022-08-27T11:52:54;98769.45;;;25.88;60.55
74181;BME280;62544;50.826;14.354;2022-08-27T11:56:45;98768.66;;;25.96;60.63
74181;BME280;62544;50.826;14.354;2022-08-27T12:00:47;98767.46;;;26.06;59.36
74181;BME280;62544;50.826;14.354;2022-08-27T12:04:49;98765.84;;;26.23;58.02
74181;BME280;62544;50.826;14.354;2022-08-27T12:08:51;98766.03;;;26.26;60.30
74181;BME280;62544;50.826;14.354;2022-08-27T12:12:55;98766.39;;;26.25;60.46
74181;BME280;62544;50.826;14.354;2022-08-27T12:17:00;98766.07;;;26.23;59.50
74181;BME280;62544;50.826;14.354;2022-08-27T12:21:02;98765.19;;;26.21;59.86
74181;BME280;62544;50.826;14.354;2022-08-27T12:24:59;98764.33;;;26.20;60.34
74181;BME280;62544;50.826;14.354;2022-08-27T12:29:20;98762.33;;;26.23;60.18
74181;BME280;62544;50.826;14.354;2022-08-27T12:33:07;98760.07;;;26.19;61.66
74181;BME280;62544;50.826;14.354;2022-08-27T12:37:05;98759.62;;;26.19;59.92
74181;BME280;62544;50.826;14.354;2022-08-27T12:41:07;98758.17;;;26.30;58.21
74181;BME280;62544;50.826;14.354;2022-08-27T12:45:16;98756.90;;;26.55;55.80
74181;BME280;62544;50.826;14.354;2022-08-27T12:49:11;98755.49;;;26.73;56.57
74181;BME280;62544;50.826;14.354;2022-08-27T12:53:30;98753.27;;;26.76;57.95
74181;BME280;62544;50.826;14.354;2022-08-27T13:05:19;98746.39;;;26.28;61.83
74181;BME280;62544;50.826;14.354;2022-08-27T13:09:25;98744.90;;;26.15;61.23
74181;BME280;62544;50.826;14.354;2022-08-27T13:13:23;98743.61;;;26.13;60.50
74181;BME280;62544;50.826;14.354;2022-08-27T13:17:34;98742.11;;;26.42;55.79
74181;BME280;62544;50.826;14.354;2022-08-27T13:21:27;98739.97;;;26.77;53.10
74181;BME280;62544;50.826;14.354;2022-08-27T13:25:31;98737.93;;;26.98;55.19
74181;BME280;62544;50.826;14.354;2022-08-27T13:29:31;98736.45;;;26.93;57.33
74181;BME280;62544;50.826;14.354;2022-08-27T13:33:33;98737.08;;;26.82;58.04
74181;BME280;62544;50.826;14.354;2022-08-27T13:37:40;98736.55;;;26.72;58.12
74181;BME280;62544;50.826;14.354;2022-08-27T13:41:38;98734.36;;;26.64;58.73
74181;BME280;62544;50.826;14.354;2022-08-27T13:45:39;98731.64;;;26.50;59.18
74181;BME280;62544;50.826;14.354;2022-08-27T13:49:41;98731.30;;;26.38;59.88
74181;BME280;62544;50.826;14.354;2022-08-27T13:53:44;98731.64;;;26.37;58.41
74181;BME280;62544;50.826;14.354;2022-08-27T13:57:46;98732.84;;;26.38;59.02
74181;BME280;62544;50.826;14.354;2022-08-27T14:05:49;98732.23;;;26.23;60.48
74181;BME280;62544;50.826;14.354;2022-08-27T14:13:53;98732.20;;;25.97;60.63
74181;BME280;62544;50.826;14.354;2022-08-27T14:17:55;98733.28;;;25.90;60.74
74181;BME280;62544;50.826;14.354;2022-08-27T14:21:57;98734.83;;;25.87;60.76
74181;BME280;62544;50.826;14.354;2022-08-27T14:25:59;98736.30;;;25.87;60.92
74181;BME280;62544;50.826;14.354;2022-08-27T14:30:01;98738.15;;;25.94;59.82
74181;BME280;62544;50.826;14.354;2022-08-27T14:34:03;98739.23;;;26.00;60.21
74181;BME280;62544;50.826;14.354;2022-08-27T14:38:12;98739.89;;;26.02;60.16
74181;BME280;62544;50.826;14.354;2022-08-27T14:42:07;98740.59;;;26.00;61.77
74181;BME280;62544;50.826;14.354;2022-08-27T14:46:12;98741.41;;;25.94;61.39
74181;BME280;62544;50.826;14.354;2022-08-27T14:50:11;98740.39;;;25.88;61.61
74181;BME280;62544;50.826;14.354;2022-08-27T14:54:13;98739.14;;;25.99;58.34
74181;BME280;62544;50.826;14.354;2022-08-27T14:58:15;98738.30;;;26.30;54.78
74181;BME280;62544;50.826;14.354;2022-08-27T15:02:17;98737.67;;;26.84;51.87
74181;BME280;62544;50.826;14.354;2022-08-27T15:06:19;98736.14;;;27.33;51.07
74181;BME280;62544;50.826;14.354;2022-08-27T15:10:21;98735.39;;;27.79;49.33
74181;BME280;62544;50.826;14.354;2022-08-27T15:14:27;98733.28;;;28.14;50.68
74181;BME280;62544;50.826;14.354;2022-08-27T15:18:25;98731.52;;;28.30;51.09
74181;BME280;62544;50.826;14.354;2022-08-27T15:22:29;98730.49;;;28.40;52.47
74181;BME280;62544;50.826;14.354;2022-08-27T15:26:29;98729.83;;;28.36;54.08
74181;BME280;62544;50.826;14.354;2022-08-27T15:30:31;98729.39;;;28.17;54.27
74181;BME280;62544;50.826;14.354;2022-08-27T15:34:33;98728.25;;;27.94;56.79
74181;BME280;62544;50.826;14.354;2022-08-27T15:38:35;98727.95;;;27.74;56.38
74181;BME280;62544;50.826;14.354;2022-08-27T15:42:37;98727.81;;;27.75;54.46
74181;BME280;62544;50.826;14.354;2022-08-27T15:46:39;98728.67;;;27.79;54.23
74181;BME280;62544;50.826;14.354;2022-08-27T15:50:41;98730.31;;;27.75;55.12
74181;BME280;62544;50.826;14.354;2022-08-27T15:54:43;98732.89;;;27.71;54.83
74181;BME280;62544;50.826;14.354;2022-08-27T15:58:45;98735.31;;;27.60;56.04
74181;BME280;62544;50.826;14.354;2022-08-27T16:02:47;98736.94;;;27.45;57.78
74181;BME280;62544;50.826;14.354;2022-08-27T16:06:49;98737.34;;;27.23;58.25
74181;BME280;62544;50.826;14.354;2022-08-27T16:10:51;98735.49;;;26.92;59.83
74181;BME280;62544;50.826;14.354;2022-08-27T16:14:53;98733.73;;;26.60;59.96
74181;BME280;62544;50.826;14.354;2022-08-27T16:18:55;98732.17;;;26.30;60.98
74181;BME280;62544;50.826;14.354;2022-08-27T16:22:57;98732.59;;;26.00;61.85
74181;BME280;62544;50.826;14.354;2022-08-27T16:26:59;98731.72;;;25.64;64.32
74181;BME280;62544;50.826;14.354;2022-08-27T16:31:01;98732.72;;;25.28;65.73
74181;BME280;62544;50.826;14.354;2022-08-27T16:35:03;98734.45;;;24.95;66.79
74181;BME280;62544;50.826;14.354;2022-08-27T16:39:05;98734.31;;;24.63;67.88
74181;BME280;62544;50.826;14.354;2022-08-27T16:43:07;98734.56;;;24.28;69.80
74181;BME280;62544;50.826;14.354;2022-08-27T16:47:09;98734.52;;;23.91;71.32
74181;BME280;62544;50.826;14.354;2022-08-27T16:51:18;98733.86;;;23.57;72.03
74181;BME280;62544;50.826;14.354;2022-08-27T16:55:13;98734.83;;;23.22;73.65
74181;BME280;62544;50.826;14.354;2022-08-27T16:59:15;98734.86;;;22.94;73.47
74181;BME280;62544;50.826;14.354;2022-08-27T17:03:17;98734.86;;;22.73;73.79
74181;BME280;62544;50.826;14.354;2022-08-27T17:07:19;98736.24;;;22.57;74.52
74181;BME280;62544;50.826;14.354;2022-08-27T17:11:22;98738.98;;;22.44;74.21
74181;BME280;62544;50.826;14.354;2022-08-27T17:15:23;98742.85;;;22.32;74.48
74181;BME280;62544;50.826;14.354;2022-08-27T17:19:25;98747.43;;;22.21;74.87
74181;BME280;62544;50.826;14.354;2022-08-27T17:23:31;98753.43;;;22.12;75.71
74181;BME280;62544;50.826;14.354;2022-08-27T17:27:29;98759.58;;;22.05;76.22
74181;BME280;62544;50.826;14.354;2022-08-27T17:31:32;98764.64;;;21.99;76.21
74181;BME280;62544;50.826;14.354;2022-08-27T17:35:33;98770.04;;;21.92;77.05
74181;BME280;62544;50.826;14.354;2022-08-27T17:39:35;98775.34;;;21.85;77.32
74181;BME280;62544;50.826;14.354;2022-08-27T17:43:37;98780.53;;;21.80;77.18
74181;BME280;62544;50.826;14.354;2022-08-27T17:47:39;98785.40;;;21.76;77.44
74181;BME280;62544;50.826;14.354;2022-08-27T17:51:41;98789.56;;;21.71;78.02
74181;BME280;62544;50.826;14.354;2022-08-27T17:55:43;98793.67;;;21.65;78.69
74181;BME280;62544;50.826;14.354;2022-08-27T17:59:45;98797.52;;;21.57;79.17
74181;BME280;62544;50.826;14.354;2022-08-27T18:03:47;98801.35;;;21.51;78.59
74181;BME280;62544;50.826;14.354;2022-08-27T18:07:49;98805.17;;;21.42;79.01
74181;BME280;62544;50.826;14.354;2022-08-27T18:11:51;98809.08;;;21.35;79.41
74181;BME280;62544;50.826;14.354;2022-08-27T18:15:53;98812.86;;;21.31;80.20
74181;BME280;62544;50.826;14.354;2022-08-27T18:19:55;98817.05;;;21.28;80.29
74181;BME280;62544;50.826;14.354;2022-08-27T18:23:57;98820.79;;;21.26;80.23
74181;BME280;62544;50.826;14.354;2022-08-27T18:28:00;98824.76;;;21.24;80.09
74181;BME280;62544;50.826;14.354;2022-08-27T18:32:01;98828.33;;;21.21;80.26
74181;BME280;62544;50.826;14.354;2022-08-27T18:36:03;98832.53;;;21.14;80.30
74181;BME280;62544;50.826;14.354;2022-08-27T18:40:05;98836.52;;;21.07;80.48
74181;BME280;62544;50.826;14.354;2022-08-27T18:44:07;98840.45;;;21.01;80.64
74181;BME280;62544;50.826;14.354;2022-08-27T18:48:11;98842.58;;;20.97;80.71
74181;BME280;62544;50.826;14.354;2022-08-27T18:52:11;98844.37;;;20.93;80.70
74181;BME280;62544;50.826;14.354;2022-08-27T18:56:14;98847.27;;;20.90;80.93
74181;BME280;62544;50.826;14.354;2022-08-27T19:00:15;98849.10;;;20.88;80.77
74181;BME280;62544;50.826;14.354;2022-08-27T19:04:17;98851.87;;;20.86;81.32
74181;BME280;62544;50.826;14.354;2022-08-27T19:08:19;98853.27;;;20.82;81.36
74181;BME280;62544;50.826;14.354;2022-08-27T19:12:21;98855.50;;;20.79;81.55
74181;BME280;62544;50.826;14.354;2022-08-27T19:16:24;98857.86;;;20.76;81.90
74181;BME280;62544;50.826;14.354;2022-08-27T19:20:25;98862.05;;;20.74;81.96
74181;BME280;62544;50.826;14.354;2022-08-27T19:24:27;98865.84;;;20.71;82.19
74181;BME280;62544;50.826;14.354;2022-08-27T19:28:37;98868.28;;;20.69;82.30
74181;BME280;62544;50.826;14.354;2022-08-27T19:32:31;98870.59;;;20.66;82.56
74181;BME280;62544;50.826;14.354;2022-08-27T19:36:34;98872.03;;;20.64;82.49
74181;BME280;62544;50.826;14.354;2022-08-27T19:40:35;98872.62;;;20.63;82.62
74181;BME280;62544;50.826;14.354;2022-08-27T19:44:37;98873.22;;;20.61;82.88
74181;BME280;62544;50.826;14.354;2022-08-27T19:48:39;98874.59;;;20.60;82.87
74181;BME280;62544;50.826;14.354;2022-08-27T19:52:41;98876.00;;;20.59;83.00
74181;BME280;62544;50.826;14.354;2022-08-27T19:56:43;98878.27;;;20.57;83.73
74181;BME280;62544;50.826;14.354;2022-08-27T20:00:45;98880.70;;;20.55;83.54
74181;BME280;62544;50.826;14.354;2022-08-27T20:04:47;98881.78;;;20.54;83.58
74181;BME280;62544;50.826;14.354;2022-08-27T20:08:49;98883.28;;;20.53;83.84
74181;BME280;62544;50.826;14.354;2022-08-27T20:12:51;98884.11;;;20.51;83.74
74181;BME280;62544;50.826;14.354;2022-08-27T20:16:53;98884.42;;;20.51;83.73
74181;BME280;62544;50.826;14.354;2022-08-27T20:20:55;98882.96;;;20.50;83.74
74181;BME280;62544;50.826;14.354;2022-08-27T20:24:57;98881.14;;;20.49;83.41
74181;BME280;62544;50.826;14.354;2022-08-27T20:28:59;98879.19;;;20.47;83.24
74181;BME280;62544;50.826;14.354;2022-08-27T20:33:01;98877.59;;;20.46;83.42
74181;BME280;62544;50.826;14.354;2022-08-27T20:37:03;98875.79;;;20.45;82.77
74181;BME280;62544;50.826;14.354;2022-08-27T20:41:05;98872.99;;;20.43;82.36
74181;BME280;62544;50.826;14.354;2022-08-27T20:45:07;98870.67;;;20.42;82.59
74181;BME280;62544;50.826;14.354;2022-08-27T20:49:09;98868.77;;;20.39;83.09
74181;BME280;62544;50.826;14.354;2022-08-27T20:53:11;98868.42;;;20.36;83.77
74181;BME280;62544;50.826;14.354;2022-08-27T20:57:13;98868.58;;;20.33;83.18
74181;BME280;62544;50.826;14.354;2022-08-27T21:01:15;98868.40;;;20.27;83.75
74181;BME280;62544;50.826;14.354;2022-08-27T21:05:17;98869.17;;;20.25;83.72
74181;BME280;62544;50.826;14.354;2022-08-27T21:09:19;98870.68;;;20.24;83.66
74181;BME280;62544;50.826;14.354;2022-08-27T21:13:21;98871.86;;;20.24;83.34
74181;BME280;62544;50.826;14.354;2022-08-27T21:17:23;98872.71;;;20.24;83.84
74181;BME280;62544;50.826;14.354;2022-08-27T21:21:25;98873.72;;;20.24;83.06
74181;BME280;62544;50.826;14.354;2022-08-27T21:25:27;98872.57;;;20.22;83.51
74181;BME280;62544;50.826;14.354;2022-08-27T21:29:29;98872.13;;;20.22;83.27
74181;BME280;62544;50.826;14.354;2022-08-27T21:33:31;98870.10;;;20.22;83.37
74181;BME280;62544;50.826;14.354;2022-08-27T21:37:33;98866.42;;;20.18;84.40
74181;BME280;62544;50.826;14.354;2022-08-27T21:41:35;98862.94;;;20.13;84.95
74181;BME280;62544;50.826;14.354;2022-08-27T21:45:37;98859.15;;;20.07;85.35
74181;BME280;62544;50.826;14.354;2022-08-27T21:49:39;98855.19;;;20.04;85.07
74181;BME280;62544;50.826;14.354;2022-08-27T21:53:41;98851.86;;;20.03;84.83
74181;BME280;62544;50.826;14.354;2022-08-27T21:57:43;98849.55;;;20.03;84.89